Time,TemperatureF,DewpointF,PressureIn,WindDirection,WindDirectionDegrees,WindSpeedMPH,WindSpeedGustMPH,Humidity,HourlyPrecipIn,Conditions,Clouds,dailyrainin,SoftwareType,DateUTC
2013-01-20 00:02:00,25.0,13.0,29.96,West,267,7.0,18.0,59,0.00,,,0.01,,2013-01-20 06:02:00,
2013-01-20 00:12:00,25.0,13.0,29.96,West,267,7.0,18.0,59,0.00,,,0.01,,2013-01-20 06:12:00,
2013-01-20 00:22:00,24.0,14.0,29.97,NW,304,7.0,14.0,64,0.00,,,0.01,,2013-01-20 06:22:00,
2013-01-20 00:33:00,23.0,11.0,29.98,WNW,289,6.0,13.0,60,0.00,,,0.01,,2013-01-20 06:33:00,
2013-01-20 00:42:00,23.0,11.0,29.98,WNW,289,6.0,13.0,60,0.00,,,0.01,,2013-01-20 06:42:00,
2013-01-20 00:52:00,22.0,11.0,30.01,SW,227,5.0,14.0,63,0.00,,,0.01,,2013-01-20 06:52:00,
2013-01-20 01:02:00,21.0,10.0,30.01,WNW,295,6.0,18.0,62,0.00,,,0.01,,2013-01-20 07:02:00,
2013-01-20 01:12:00,21.0,10.0,30.01,WNW,295,6.0,18.0,62,0.00,,,0.01,,2013-01-20 07:12:00,
2013-01-20 01:22:00,21.0,11.0,30.03,NW,310,6.0,17.0,64,0.00,,,0.01,,2013-01-20 07:22:00,
2013-01-20 01:32:00,21.0,12.0,30.04,WNW,284,6.0,10.0,67,0.00,,,0.01,,2013-01-20 07:32:00,
2013-01-20 01:42:00,21.0,12.0,30.04,WNW,284,6.0,10.0,67,0.00,,,0.01,,2013-01-20 07:42:00,
2013-01-20 01:52:00,20.0,9.0,30.06,NW,324,6.0,13.0,63,0.00,,,0.01,,2013-01-20 07:52:00,
2013-01-20 02:02:00,19.0,10.0,30.07,NW,324,5.0,16.0,67,0.00,,,0.01,,2013-01-20 08:02:00,
2013-01-20 02:12:00,19.0,10.0,30.07,NW,324,5.0,16.0,67,0.00,,,0.01,,2013-01-20 08:12:00,
2013-01-20 02:22:00,18.0,9.0,30.09,West,277,6.0,13.0,67,0.00,,,0.01,,2013-01-20 08:22:00,
2013-01-20 02:32:00,18.0,10.0,30.11,WNW,300,6.0,13.0,69,0.00,,,0.01,,2013-01-20 08:32:00,
2013-01-20 02:42:00,18.0,10.0,30.11,WNW,300,6.0,13.0,69,0.00,,,0.01,,2013-01-20 08:42:00,
2013-01-20 02:52:00,17.0,8.0,30.12,West,278,5.0,12.0,67,0.00,,,0.01,,2013-01-20 08:52:00,
2013-01-20 03:02:00,16.0,7.0,30.14,NW,311,4.0,10.0,68,0.00,,,0.01,,2013-01-20 09:02:00,
2013-01-20 03:12:00,16.0,7.0,30.14,NW,311,4.0,10.0,68,0.00,,,0.01,,2013-01-20 09:12:00,
2013-01-20 03:22:00,16.0,8.0,30.15,West,276,2.0,9.0,69,0.00,,,0.01,,2013-01-20 09:22:00,
2013-01-20 03:33:00,15.0,7.0,30.16,WSW,256,5.0,11.0,69,0.00,,,0.01,,2013-01-20 09:33:00,
2013-01-20 03:42:00,15.0,7.0,30.16,WSW,256,5.0,11.0,69,0.00,,,0.01,,2013-01-20 09:42:00,
2013-01-20 03:52:00,15.0,7.0,30.17,West,267,4.0,9.0,69,0.00,,,0.01,,2013-01-20 09:52:00,
2013-01-20 04:02:00,15.0,7.0,30.17,WSW,258,4.0,13.0,70,0.00,,,0.01,,2013-01-20 10:02:00,
2013-01-20 04:12:00,15.0,7.0,30.17,WSW,258,4.0,13.0,70,0.00,,,0.01,,2013-01-20 10:12:00,
2013-01-20 04:22:00,14.0,6.0,30.17,NNW,327,4.0,9.0,70,0.00,,,0.01,,2013-01-20 10:22:00,
2013-01-20 04:32:00,14.0,6.0,30.18,WNW,289,4.0,10.0,70,0.00,,,0.01,,2013-01-20 10:32:00,
2013-01-20 04:42:00,14.0,6.0,30.18,WNW,289,4.0,10.0,70,0.00,,,0.01,,2013-01-20 10:42:00,
2013-01-20 04:52:00,14.0,6.0,30.18,WNW,289,4.0,10.0,70,0.00,,,0.01,,2013-01-20 10:52:00,
2013-01-20 05:02:00,13.0,6.0,30.20,WNW,284,3.0,12.0,72,0.00,,,0.01,,2013-01-20 11:02:00,
2013-01-20 05:12:00,13.0,6.0,30.20,WNW,284,3.0,12.0,72,0.00,,,0.01,,2013-01-20 11:12:00,
2013-01-20 05:22:00,13.0,5.0,30.21,North,351,3.0,9.0,71,0.00,,,0.01,,2013-01-20 11:22:00,
2013-01-20 05:33:00,13.0,5.0,30.23,West,275,3.0,9.0,71,0.00,,,0.01,,2013-01-20 11:33:00,
2013-01-20 05:42:00,13.0,5.0,30.23,West,275,3.0,9.0,71,0.00,,,0.01,,2013-01-20 11:42:00,
2013-01-20 05:53:00,12.0,4.0,30.23,WNW,290,4.0,11.0,70,0.00,,,0.01,,2013-01-20 11:53:00,
2013-01-20 06:03:00,12.0,4.0,30.23,WNW,282,3.0,11.0,71,0.00,,,0.01,,2013-01-20 12:03:00,
2013-01-20 06:12:00,12.0,4.0,30.23,WNW,282,3.0,11.0,71,0.00,,,0.01,,2013-01-20 12:12:00,
2013-01-20 06:23:00,12.0,4.0,30.25,NW,316,3.0,9.0,71,0.00,,,0.01,,2013-01-20 12:23:00,
2013-01-20 06:33:00,12.0,5.0,30.26,West,281,2.0,7.0,73,0.00,,,0.01,,2013-01-20 12:33:00,
2013-01-20 06:43:00,12.0,5.0,30.26,West,281,2.0,7.0,73,0.00,,,0.01,,2013-01-20 12:43:00,
2013-01-20 08:23:00,12.0,5.0,30.29,West,279,3.0,6.0,74,0.00,,,0.01,,2013-01-20 14:23:00,
2013-01-20 08:33:00,11.0,3.0,30.30,WNW,286,3.0,8.0,71,0.00,,,0.01,,2013-01-20 14:33:00,
2013-01-20 08:42:00,11.0,3.0,30.30,WNW,286,3.0,8.0,71,0.00,,,0.01,,2013-01-20 14:42:00,
2013-01-20 08:53:00,12.0,5.0,30.30,West,277,2.0,9.0,72,0.00,,,0.01,,2013-01-20 14:53:00,
2013-01-20 09:03:00,12.0,5.0,30.30,West,277,2.0,9.0,72,0.00,,,0.01,,2013-01-20 15:03:00,
2013-01-20 09:12:00,12.0,5.0,30.30,West,277,2.0,9.0,72,0.00,,,0.01,,2013-01-20 15:12:00,
2013-01-20 09:23:00,13.0,5.0,30.32,WNW,299,4.0,10.0,70,0.00,,,0.01,,2013-01-20 15:23:00,
2013-01-20 09:33:00,13.0,5.0,30.32,WNW,303,3.0,12.0,70,0.00,,,0.01,,2013-01-20 15:33:00,
2013-01-20 09:42:00,13.0,5.0,30.32,WNW,303,3.0,12.0,70,0.00,,,0.01,,2013-01-20 15:42:00,
2013-01-20 09:52:00,13.0,4.0,30.32,WNW,297,4.0,11.0,68,0.00,,,0.01,,2013-01-20 15:52:00,
2013-01-20 10:03:00,14.0,6.0,30.32,NW,326,3.0,8.0,69,0.00,,,0.01,,2013-01-20 16:03:00,
2013-01-20 10:12:00,14.0,6.0,30.32,NW,326,3.0,8.0,69,0.00,,,0.01,,2013-01-20 16:12:00,
2013-01-20 10:23:00,14.0,6.0,30.32,NW,315,2.0,9.0,70,0.00,,,0.01,,2013-01-20 16:23:00,
2013-01-20 10:33:00,15.0,7.0,30.32,NW,322,3.0,9.0,70,0.00,,,0.00,,2013-01-20 16:33:00,
2013-01-20 10:43:00,15.0,7.0,30.32,NW,322,3.0,9.0,70,0.00,,,0.00,,2013-01-20 16:43:00,
2013-01-20 10:52:00,15.0,7.0,30.33,NNW,327,2.0,11.0,69,0.00,,,0.00,,2013-01-20 16:52:00,
2013-01-20 11:03:00,15.0,6.0,30.34,NW,309,2.0,9.0,68,0.00,,,0.00,,2013-01-20 17:03:00,
2013-01-20 11:12:00,15.0,6.0,30.34,NW,309,2.0,9.0,68,0.00,,,0.00,,2013-01-20 17:12:00,
2013-01-20 11:22:00,16.0,7.0,30.33,WNW,303,3.0,7.0,68,0.00,,,0.00,,2013-01-20 17:22:00,
2013-01-20 11:33:00,16.0,7.0,30.33,WNW,303,3.0,7.0,68,0.00,,,0.00,,2013-01-20 17:33:00,
2013-01-20 11:42:00,16.0,7.0,30.33,WNW,303,3.0,7.0,68,0.00,,,0.00,,2013-01-20 17:42:00,
2013-01-20 11:52:00,16.0,7.0,30.32,NW,304,4.0,7.0,68,0.00,,,0.00,,2013-01-20 17:52:00,
2013-01-20 12:03:00,16.0,7.0,30.31,West,265,3.0,11.0,67,0.00,,,0.00,,2013-01-20 18:03:00,
2013-01-20 12:13:00,16.0,7.0,30.31,West,265,3.0,11.0,67,0.00,,,0.00,,2013-01-20 18:13:00,
2013-01-20 12:23:00,17.0,8.0,30.31,NW,308,3.0,7.0,67,0.00,,,0.00,,2013-01-20 18:23:00,
2013-01-20 12:33:00,17.0,8.0,30.30,NW,317,2.0,8.0,66,0.00,,,0.00,,2013-01-20 18:33:00,
2013-01-20 12:43:00,17.0,8.0,30.30,NW,317,2.0,8.0,66,0.00,,,0.00,,2013-01-20 18:43:00,
2013-01-20 12:53:00,17.0,7.0,30.30,West,274,3.0,7.0,65,0.00,,,0.00,,2013-01-20 18:53:00,
2013-01-20 13:02:00,17.0,7.0,30.29,WNW,300,3.0,8.0,64,0.00,,,0.00,,2013-01-20 19:02:00,
2013-01-20 13:12:00,17.0,7.0,30.29,WNW,300,3.0,8.0,64,0.00,,,0.00,,2013-01-20 19:12:00,
2013-01-20 13:22:00,18.0,8.0,30.29,NW,325,3.0,8.0,63,0.00,,,0.00,,2013-01-20 19:22:00,
2013-01-20 13:33:00,18.0,7.0,30.29,WNW,294,3.0,9.0,62,0.00,,,0.00,,2013-01-20 19:33:00,
2013-01-20 13:43:00,18.0,7.0,30.29,WNW,294,3.0,9.0,62,0.00,,,0.00,,2013-01-20 19:43:00,
2013-01-20 13:52:00,18.0,7.0,30.28,NW,315,2.0,6.0,62,0.00,,,0.00,,2013-01-20 19:52:00,
2013-01-20 14:03:00,18.0,7.0,30.28,WNW,289,2.0,8.0,61,0.00,,,0.00,,2013-01-20 20:03:00,
2013-01-20 14:12:00,18.0,7.0,30.28,WNW,289,2.0,8.0,61,0.00,,,0.00,,2013-01-20 20:12:00,
2013-01-20 14:23:00,18.0,7.0,30.29,NW,325,2.0,9.0,61,0.00,,,0.00,,2013-01-20 20:23:00,
2013-01-20 14:33:00,18.0,7.0,30.30,West,271,2.0,7.0,62,0.00,,,0.00,,2013-01-20 20:33:00,
2013-01-20 14:42:00,18.0,7.0,30.30,West,271,2.0,7.0,62,0.00,,,0.00,,2013-01-20 20:42:00,
2013-01-20 14:53:00,18.0,7.0,30.29,SW,223,1.0,6.0,62,0.00,,,0.00,,2013-01-20 20:53:00,
2013-01-20 15:03:00,18.0,7.0,30.29,NNW,331,1.0,9.0,61,0.00,,,0.00,,2013-01-20 21:03:00,
2013-01-20 15:13:00,18.0,7.0,30.29,NNW,331,1.0,9.0,61,0.00,,,0.00,,2013-01-20 21:13:00,
2013-01-20 15:23:00,17.0,5.0,30.29,WNW,292,3.0,7.0,59,0.00,,,0.00,,2013-01-20 21:23:00,
2013-01-20 15:33:00,18.0,6.0,30.30,WNW,288,4.0,7.0,60,0.00,,,0.00,,2013-01-20 21:33:00,
2013-01-20 15:43:00,18.0,6.0,30.30,WNW,288,4.0,7.0,60,0.00,,,0.00,,2013-01-20 21:43:00,
2013-01-20 15:53:00,18.0,6.0,30.29,WNW,292,2.0,7.0,58,0.00,,,0.00,,2013-01-20 21:53:00,
2013-01-20 16:03:00,17.0,6.0,30.29,WNW,282,1.0,5.0,60,0.00,,,0.00,,2013-01-20 22:03:00,
2013-01-20 16:12:00,17.0,6.0,30.29,WNW,282,1.0,5.0,60,0.00,,,0.00,,2013-01-20 22:12:00,
2013-01-20 16:22:00,17.0,6.0,30.29,NW,305,2.0,7.0,60,0.00,,,0.00,,2013-01-20 22:22:00,
2013-01-20 16:33:00,17.0,5.0,30.29,West,269,1.0,7.0,59,0.00,,,0.00,,2013-01-20 22:33:00,
2013-01-20 16:43:00,17.0,5.0,30.29,West,269,1.0,7.0,59,0.00,,,0.00,,2013-01-20 22:43:00,
2013-01-20 16:52:00,17.0,6.0,30.29,NW,306,4.0,9.0,60,0.00,,,0.00,,2013-01-20 22:52:00,
2013-01-20 17:03:00,17.0,6.0,30.30,West,259,2.0,8.0,60,0.00,,,0.00,,2013-01-20 23:03:00,
2013-01-20 17:13:00,17.0,6.0,30.30,West,259,2.0,8.0,60,0.00,,,0.00,,2013-01-20 23:13:00,
2013-01-20 17:23:00,17.0,6.0,30.30,NW,305,1.0,8.0,61,0.00,,,0.00,,2013-01-20 23:23:00,
2013-01-20 17:33:00,17.0,6.0,30.30,WNW,285,1.0,5.0,61,0.00,,,0.00,,2013-01-20 23:33:00,
2013-01-20 17:43:00,17.0,6.0,30.30,WNW,285,1.0,5.0,61,0.00,,,0.00,,2013-01-20 23:43:00,
2013-01-20 17:53:00,17.0,6.0,30.30,West,265,0.0,7.0,62,0.00,,,0.00,,2013-01-20 23:53:00,
2013-01-20 18:03:00,17.0,5.0,30.30,WNW,287,2.0,4.0,59,0.00,,,0.00,,2013-01-21 00:03:00,
2013-01-20 18:13:00,17.0,5.0,30.30,WNW,287,2.0,4.0,59,0.00,,,0.00,,2013-01-21 00:13:00,
2013-01-20 18:23:00,17.0,5.0,30.29,West,262,2.0,4.0,58,0.00,,,0.00,,2013-01-21 00:23:00,
2013-01-20 18:33:00,16.0,4.0,30.29,NW,304,2.0,5.0,59,0.00,,,0.00,,2013-01-21 00:33:00,
2013-01-20 18:43:00,16.0,4.0,30.29,NW,304,2.0,5.0,59,0.00,,,0.00,,2013-01-21 00:43:00,
2013-01-20 18:53:00,16.0,5.0,30.30,NW,308,1.0,3.0,60,0.00,,,0.00,,2013-01-21 00:53:00,
2013-01-20 19:03:00,16.0,5.0,30.30,WNW,298,1.0,4.0,60,0.00,,,0.00,,2013-01-21 01:03:00,
2013-01-20 19:13:00,16.0,5.0,30.30,WNW,298,1.0,4.0,60,0.00,,,0.00,,2013-01-21 01:13:00,
2013-01-20 19:23:00,16.0,5.0,30.30,WNW,290,1.0,5.0,62,0.00,,,0.00,,2013-01-21 01:23:00,
2013-01-20 19:33:00,16.0,6.0,30.30,WNW,292,2.0,5.0,63,0.00,,,0.00,,2013-01-21 01:33:00,
2013-01-20 19:43:00,16.0,6.0,30.30,WNW,292,2.0,5.0,63,0.00,,,0.00,,2013-01-21 01:43:00,
2013-01-20 19:52:00,16.0,5.0,30.29,NNW,340,2.0,6.0,62,0.00,,,0.00,,2013-01-21 01:52:00,
2013-01-20 20:03:00,16.0,6.0,30.29,WNW,282,4.0,8.0,65,0.00,,,0.00,,2013-01-21 02:03:00,
2013-01-20 20:12:00,16.0,6.0,30.29,WNW,282,4.0,8.0,65,0.00,,,0.00,,2013-01-21 02:12:00,
2013-01-20 20:23:00,16.0,6.0,30.29,WNW,282,4.0,8.0,65,0.00,,,0.00,,2013-01-21 02:23:00,
2013-01-20 20:33:00,16.0,7.0,30.29,West,276,3.0,7.0,68,0.00,,,0.00,,2013-01-21 02:33:00,
2013-01-20 20:43:00,16.0,7.0,30.29,West,276,3.0,7.0,68,0.00,,,0.00,,2013-01-21 02:43:00,
2013-01-20 20:53:00,16.0,7.0,30.28,West,266,3.0,7.0,67,0.00,,,0.00,,2013-01-21 02:53:00,
2013-01-20 21:03:00,16.0,7.0,30.28,West,266,3.0,7.0,67,0.00,,,0.00,,2013-01-21 03:03:00,
2013-01-20 21:13:00,16.0,7.0,30.28,West,266,3.0,7.0,67,0.00,,,0.00,,2013-01-21 03:13:00,
2013-01-20 21:23:00,15.0,5.0,30.29,WNW,287,3.0,8.0,65,0.00,,,0.00,,2013-01-21 03:23:00,
2013-01-20 21:33:00,15.0,5.0,30.29,WNW,287,3.0,8.0,65,0.00,,,0.00,,2013-01-21 03:33:00,
2013-01-20 21:43:00,15.0,5.0,30.29,WNW,287,3.0,8.0,65,0.00,,,0.00,,2013-01-21 03:43:00,
2013-01-20 21:52:00,15.0,5.0,30.28,WSW,254,3.0,9.0,65,0.00,,,0.00,,2013-01-21 03:52:00,
2013-01-20 22:03:00,15.0,5.0,30.27,WNW,300,3.0,6.0,65,0.00,,,0.00,,2013-01-21 04:03:00,
2013-01-20 22:12:00,15.0,5.0,30.27,WNW,300,3.0,6.0,65,0.00,,,0.00,,2013-01-21 04:12:00,
2013-01-20 22:23:00,15.0,6.0,30.27,NW,308,2.0,8.0,67,0.00,,,0.00,,2013-01-21 04:23:00,
2013-01-20 22:33:00,14.0,5.0,30.27,West,281,1.0,5.0,67,0.00,,,0.00,,2013-01-21 04:33:00,
2013-01-20 22:42:00,14.0,5.0,30.27,West,281,1.0,5.0,67,0.00,,,0.00,,2013-01-21 04:42:00,
2013-01-20 22:53:00,14.0,5.0,30.27,West,262,2.0,5.0,67,0.00,,,0.00,,2013-01-21 04:53:00,
2013-01-20 23:03:00,13.0,4.0,30.27,NNW,329,1.0,7.0,68,0.00,,,0.00,,2013-01-21 05:03:00,
2013-01-20 23:12:00,13.0,4.0,30.27,NNW,329,1.0,7.0,68,0.00,,,0.00,,2013-01-21 05:12:00,
2013-01-20 23:22:00,13.0,5.0,30.27,WNW,294,3.0,7.0,69,0.00,,,0.00,,2013-01-21 05:22:00,
2013-01-20 23:34:00,13.0,5.0,30.27,WNW,297,2.0,7.0,70,0.00,,,0.00,,2013-01-21 05:34:00,
2013-01-20 23:42:00,13.0,5.0,30.27,WNW,297,2.0,7.0,70,0.00,,,0.00,,2013-01-21 05:42:00,
2013-01-20 23:52:00,12.0,4.0,30.27,West,271,1.0,5.0,71,0.00,,,0.00,,2013-01-21 05:52:00,